sensor_id;sensor_type;location;lat;lon;timestamp;P1;durP1;ratioP1;P2;durP2;ratioP2
51836;SDS011;38941;53.254;6.600;2022-10-17T00:01:22;13.93;;;4.60;;
51836;SDS011;38941;53.254;6.600;2022-10-17T00:03:26;7.82;;;3.13;;
51836;SDS011;38941;53.254;6.600;2022-10-17T00:05:27;9.05;;;3.47;;
51836;SDS011;38941;53.254;6.600;2022-10-17T00:07:29;9.88;;;3.60;;
51836;SDS011;38941;53.254;6.600;2022-10-17T00:09:30;8.25;;;3.28;;
51836;SDS011;38941;53.254;6.600;2022-10-17T00:11:30;35.10;;;4.03;;
51836;SDS011;38941;53.254;6.600;2022-10-17T00:13:31;9.52;;;2.63;;
51836;SDS011;38941;53.254;6.600;2022-10-17T00:15:35;7.90;;;2.30;;
51836;SDS011;38941;53.254;6.600;2022-10-17T00:17:36;5.10;;;2.33;;
51836;SDS011;38941;53.254;6.600;2022-10-17T00:19:41;12.93;;;2.58;;
51836;SDS011;38941;53.254;6.600;2022-10-17T00:21:41;8.55;;;2.78;;
51836;SDS011;38941;53.254;6.600;2022-10-17T00:23:42;10.68;;;2.33;;
51836;SDS011;38941;53.254;6.600;2022-10-17T00:25:44;7.93;;;2.28;;
51836;SDS011;38941;53.254;6.600;2022-10-17T00:27:44;7.22;;;1.98;;
51836;SDS011;38941;53.254;6.600;2022-10-17T00:29:49;6.78;;;2.17;;
51836;SDS011;38941;53.254;6.600;2022-10-17T00:31:53;5.57;;;2.70;;
51836;SDS011;38941;53.254;6.600;2022-10-17T00:33:55;8.40;;;2.20;;
51836;SDS011;38941;53.254;6.600;2022-10-17T00:36:09;10.55;;;2.20;;
51836;SDS011;38941;53.254;6.600;2022-10-17T00:38:17;13.55;;;2.30;;
51836;SDS011;38941;53.254;6.600;2022-10-17T00:40:19;14.07;;;3.42;;
51836;SDS011;38941;53.254;6.600;2022-10-17T00:42:20;13.48;;;3.53;;
51836;SDS011;38941;53.254;6.600;2022-10-17T00:46:36;7.05;;;2.38;;
51836;SDS011;38941;53.254;6.600;2022-10-17T00:48:38;10.45;;;2.92;;
51836;SDS011;38941;53.254;6.600;2022-10-17T00:50:40;11.32;;;2.63;;
51836;SDS011;38941;53.254;6.600;2022-10-17T00:52:43;6.22;;;2.22;;
51836;SDS011;38941;53.254;6.600;2022-10-17T00:54:48;7.70;;;2.20;;
51836;SDS011;38941;53.254;6.600;2022-10-17T00:56:55;8.95;;;2.22;;
51836;SDS011;38941;53.254;6.600;2022-10-17T00:58:56;10.23;;;2.42;;
51836;SDS011;38941;53.254;6.600;2022-10-17T01:00:58;11.07;;;2.95;;
51836;SDS011;38941;53.254;6.600;2022-10-17T01:02:59;9.32;;;2.75;;
51836;SDS011;38941;53.254;6.600;2022-10-17T01:05:00;10.68;;;2.90;;
51836;SDS011;38941;53.254;6.600;2022-10-17T01:07:01;12.68;;;2.63;;
51836;SDS011;38941;53.254;6.600;2022-10-17T01:09:03;11.02;;;2.42;;
51836;SDS011;38941;53.254;6.600;2022-10-17T01:13:45;7.45;;;2.30;;
51836;SDS011;38941;53.254;6.600;2022-10-17T01:18:44;8.48;;;3.03;;
51836;SDS011;38941;53.254;6.600;2022-10-17T01:26:15;6.38;;;2.50;;
51836;SDS011;38941;53.254;6.600;2022-10-17T01:31:06;10.45;;;2.63;;
51836;SDS011;38941;53.254;6.600;2022-10-17T01:33:23;7.68;;;2.42;;
51836;SDS011;38941;53.254;6.600;2022-10-17T01:37:58;9.10;;;2.65;;
51836;SDS011;38941;53.254;6.600;2022-10-17T01:40:08;9.82;;;2.65;;
51836;SDS011;38941;53.254;6.600;2022-10-17T01:42:25;7.47;;;2.35;;
51836;SDS011;38941;53.254;6.600;2022-10-17T01:47:05;9.60;;;2.55;;
51836;SDS011;38941;53.254;6.600;2022-10-17T01:49:10;8.85;;;2.50;;
51836;SDS011;38941;53.254;6.600;2022-10-17T01:51:20;8.40;;;2.75;;
51836;SDS011;38941;53.254;6.600;2022-10-17T01:53:36;8.00;;;3.00;;
51836;SDS011;38941;53.254;6.600;2022-10-17T01:55:41;8.73;;;2.83;;
51836;SDS011;38941;53.254;6.600;2022-10-17T01:57:49;7.25;;;3.55;;
51836;SDS011;38941;53.254;6.600;2022-10-17T01:59:55;11.50;;;3.45;;
51836;SDS011;38941;53.254;6.600;2022-10-17T02:01:57;11.48;;;2.90;;
51836;SDS011;38941;53.254;6.600;2022-10-17T02:04:00;7.82;;;2.83;;
51836;SDS011;38941;53.254;6.600;2022-10-17T02:06:03;13.70;;;3.55;;
51836;SDS011;38941;53.254;6.600;2022-10-17T02:08:05;4.53;;;2.33;;
51836;SDS011;38941;53.254;6.600;2022-10-17T02:10:09;4.82;;;2.72;;
51836;SDS011;38941;53.254;6.600;2022-10-17T02:16:49;10.98;;;3.20;;
51836;SDS011;38941;53.254;6.600;2022-10-17T02:21:23;7.90;;;3.15;;
51836;SDS011;38941;53.254;6.600;2022-10-17T02:23:51;9.50;;;2.95;;
51836;SDS011;38941;53.254;6.600;2022-10-17T02:26:08;12.55;;;2.65;;
51836;SDS011;38941;53.254;6.600;2022-10-17T02:32:49;5.32;;;2.97;;
51836;SDS011;38941;53.254;6.600;2022-10-17T02:35:06;6.18;;;2.95;;
51836;SDS011;38941;53.254;6.600;2022-10-17T02:37:12;13.32;;;4.13;;
51836;SDS011;38941;53.254;6.600;2022-10-17T02:39:19;6.43;;;3.33;;
51836;SDS011;38941;53.254;6.600;2022-10-17T02:41:21;12.45;;;3.90;;
51836;SDS011;38941;53.254;6.600;2022-10-17T02:43:23;7.82;;;3.10;;
51836;SDS011;38941;53.254;6.600;2022-10-17T02:45:25;6.95;;;3.80;;
51836;SDS011;38941;53.254;6.600;2022-10-17T02:47:33;8.93;;;3.65;;
51836;SDS011;38941;53.254;6.600;2022-10-17T02:49:46;8.68;;;3.78;;
51836;SDS011;38941;53.254;6.600;2022-10-17T02:52:00;9.00;;;4.22;;
51836;SDS011;38941;53.254;6.600;2022-10-17T02:56:50;10.43;;;4.50;;
51836;SDS011;38941;53.254;6.600;2022-10-17T02:58:55;9.82;;;3.95;;
51836;SDS011;38941;53.254;6.600;2022-10-17T03:00:59;7.63;;;3.90;;
51836;SDS011;38941;53.254;6.600;2022-10-17T03:03:00;6.47;;;3.75;;
51836;SDS011;38941;53.254;6.600;2022-10-17T03:05:20;10.10;;;4.38;;
51836;SDS011;38941;53.254;6.600;2022-10-17T03:07:22;9.52;;;4.32;;
51836;SDS011;38941;53.254;6.600;2022-10-17T03:09:24;7.60;;;4.22;;
51836;SDS011;38941;53.254;6.600;2022-10-17T03:11:25;10.32;;;4.30;;
51836;SDS011;38941;53.254;6.600;2022-10-17T03:13:25;10.52;;;5.00;;
51836;SDS011;38941;53.254;6.600;2022-10-17T03:15:26;9.50;;;4.70;;
51836;SDS011;38941;53.254;6.600;2022-10-17T03:17:28;13.90;;;4.95;;
51836;SDS011;38941;53.254;6.600;2022-10-17T03:19:30;10.63;;;5.15;;
51836;SDS011;38941;53.254;6.600;2022-10-17T03:21:31;9.02;;;5.18;;
51836;SDS011;38941;53.254;6.600;2022-10-17T03:23:31;13.25;;;5.10;;
51836;SDS011;38941;53.254;6.600;2022-10-17T03:25:33;8.68;;;4.97;;
51836;SDS011;38941;53.254;6.600;2022-10-17T03:27:35;11.50;;;6.25;;
51836;SDS011;38941;53.254;6.600;2022-10-17T03:29:36;9.27;;;5.70;;
51836;SDS011;38941;53.254;6.600;2022-10-17T03:31:39;9.73;;;5.15;;
51836;SDS011;38941;53.254;6.600;2022-10-17T03:33:40;10.13;;;5.43;;
51836;SDS011;38941;53.254;6.600;2022-10-17T03:35:41;13.10;;;6.38;;
51836;SDS011;38941;53.254;6.600;2022-10-17T03:37:43;19.63;;;6.32;;
51836;SDS011;38941;53.254;6.600;2022-10-17T03:39:44;10.63;;;5.32;;
51836;SDS011;38941;53.254;6.600;2022-10-17T03:41:45;8.77;;;5.15;;
51836;SDS011;38941;53.254;6.600;2022-10-17T03:43:46;10.32;;;6.60;;
51836;SDS011;38941;53.254;6.600;2022-10-17T03:45:47;8.65;;;5.07;;
51836;SDS011;38941;53.254;6.600;2022-10-17T03:47:48;9.07;;;6.03;;
51836;SDS011;38941;53.254;6.600;2022-10-17T03:49:49;10.25;;;5.57;;
51836;SDS011;38941;53.254;6.600;2022-10-17T03:51:53;10.32;;;5.90;;
51836;SDS011;38941;53.254;6.600;2022-10-17T03:53:54;11.82;;;5.68;;
51836;SDS011;38941;53.254;6.600;2022-10-17T03:55:55;11.60;;;5.53;;
51836;SDS011;38941;53.254;6.600;2022-10-17T03:57:56;8.27;;;5.35;;
51836;SDS011;38941;53.254;6.600;2022-10-17T03:59:57;14.32;;;5.95;;
51836;SDS011;38941;53.254;6.600;2022-10-17T04:01:57;11.07;;;5.25;;
51836;SDS011;38941;53.254;6.600;2022-10-17T04:03:58;8.05;;;4.75;;
51836;SDS011;38941;53.254;6.600;2022-10-17T04:05:59;8.10;;;5.10;;
51836;SDS011;38941;53.254;6.600;2022-10-17T04:08:01;11.02;;;4.95;;
51836;SDS011;38941;53.254;6.600;2022-10-17T04:10:02;13.32;;;5.10;;
51836;SDS011;38941;53.254;6.600;2022-10-17T04:12:04;11.85;;;5.65;;
51836;SDS011;38941;53.254;6.600;2022-10-17T04:14:04;9.00;;;4.88;;
51836;SDS011;38941;53.254;6.600;2022-10-17T04:16:06;9.32;;;4.53;;
51836;SDS011;38941;53.254;6.600;2022-10-17T04:18:10;13.02;;;5.47;;
51836;SDS011;38941;53.254;6.600;2022-10-17T04:20:11;9.75;;;4.97;;
51836;SDS011;38941;53.254;6.600;2022-10-17T04:22:12;8.77;;;4.85;;
51836;SDS011;38941;53.254;6.600;2022-10-17T04:24:14;11.40;;;4.85;;
51836;SDS011;38941;53.254;6.600;2022-10-17T04:26:16;10.60;;;5.50;;
51836;SDS011;38941;53.254;6.600;2022-10-17T04:28:17;8.80;;;4.60;;
51836;SDS011;38941;53.254;6.600;2022-10-17T04:30:18;9.45;;;4.53;;
51836;SDS011;38941;53.254;6.600;2022-10-17T04:32:19;8.40;;;4.53;;
51836;SDS011;38941;53.254;6.600;2022-10-17T04:34:19;10.90;;;4.82;;
51836;SDS011;38941;53.254;6.600;2022-10-17T04:36:20;8.50;;;4.55;;
51836;SDS011;38941;53.254;6.600;2022-10-17T04:38:24;6.80;;;4.65;;
51836;SDS011;38941;53.254;6.600;2022-10-17T04:40:25;6.90;;;5.30;;
51836;SDS011;38941;53.254;6.600;2022-10-17T04:42:27;9.07;;;5.28;;
51836;SDS011;38941;53.254;6.600;2022-10-17T04:44:28;9.10;;;5.25;;
51836;SDS011;38941;53.254;6.600;2022-10-17T04:46:32;9.13;;;4.90;;
51836;SDS011;38941;53.254;6.600;2022-10-17T04:48:35;7.53;;;5.20;;
51836;SDS011;38941;53.254;6.600;2022-10-17T04:50:37;6.50;;;4.60;;
51836;SDS011;38941;53.254;6.600;2022-10-17T04:52:37;7.95;;;5.20;;
51836;SDS011;38941;53.254;6.600;2022-10-17T04:54:38;10.95;;;6.05;;
51836;SDS011;38941;53.254;6.600;2022-10-17T04:56:40;8.88;;;5.35;;
51836;SDS011;38941;53.254;6.600;2022-10-17T04:58:42;9.57;;;5.45;;
51836;SDS011;38941;53.254;6.600;2022-10-17T05:00:44;13.45;;;5.47;;
51836;SDS011;38941;53.254;6.600;2022-10-17T05:02:45;8.85;;;5.63;;
51836;SDS011;38941;53.254;6.600;2022-10-17T05:04:46;8.10;;;5.85;;
51836;SDS011;38941;53.254;6.600;2022-10-17T05:06:48;13.90;;;5.80;;
51836;SDS011;38941;53.254;6.600;2022-10-17T05:08:49;11.98;;;5.88;;
51836;SDS011;38941;53.254;6.600;2022-10-17T05:10:50;10.35;;;6.18;;
51836;SDS011;38941;53.254;6.600;2022-10-17T05:12:50;13.57;;;6.60;;
51836;SDS011;38941;53.254;6.600;2022-10-17T05:14:51;13.40;;;6.30;;
51836;SDS011;38941;53.254;6.600;2022-10-17T05:16:52;11.02;;;6.05;;
51836;SDS011;38941;53.254;6.600;2022-10-17T05:18:55;11.20;;;5.95;;
51836;SDS011;38941;53.254;6.600;2022-10-17T05:20:56;11.80;;;6.03;;
51836;SDS011;38941;53.254;6.600;2022-10-17T05:22:58;12.77;;;6.32;;
51836;SDS011;38941;53.254;6.600;2022-10-17T05:24:59;11.52;;;6.10;;
51836;SDS011;38941;53.254;6.600;2022-10-17T05:27:00;11.40;;;6.15;;
51836;SDS011;38941;53.254;6.600;2022-10-17T05:29:00;13.27;;;7.13;;
51836;SDS011;38941;53.254;6.600;2022-10-17T05:31:05;12.05;;;6.75;;
51836;SDS011;38941;53.254;6.600;2022-10-17T05:33:08;10.98;;;6.82;;
51836;SDS011;38941;53.254;6.600;2022-10-17T05:35:09;11.82;;;6.40;;
51836;SDS011;38941;53.254;6.600;2022-10-17T05:37:10;11.50;;;6.57;;
51836;SDS011;38941;53.254;6.600;2022-10-17T05:39:11;9.23;;;6.03;;
51836;SDS011;38941;53.254;6.600;2022-10-17T05:41:14;11.93;;;6.88;;
51836;SDS011;38941;53.254;6.600;2022-10-17T05:43:15;8.43;;;5.93;;
51836;SDS011;38941;53.254;6.600;2022-10-17T05:45:16;14.85;;;7.18;;
51836;SDS011;38941;53.254;6.600;2022-10-17T05:47:18;10.48;;;7.00;;
51836;SDS011;38941;53.254;6.600;2022-10-17T05:49:20;10.50;;;6.78;;
51836;SDS011;38941;53.254;6.600;2022-10-17T05:51:21;12.27;;;6.57;;
51836;SDS011;38941;53.254;6.600;2022-10-17T05:53:22;11.57;;;7.30;;
51836;SDS011;38941;53.254;6.600;2022-10-17T05:55:22;14.10;;;7.60;;
51836;SDS011;38941;53.254;6.600;2022-10-17T05:57:25;12.75;;;7.88;;
51836;SDS011;38941;53.254;6.600;2022-10-17T05:59:27;14.80;;;8.10;;
51836;SDS011;38941;53.254;6.600;2022-10-17T06:01:29;14.02;;;7.28;;
51836;SDS011;38941;53.254;6.600;2022-10-17T06:03:30;16.67;;;8.48;;
51836;SDS011;38941;53.254;6.600;2022-10-17T06:05:33;10.15;;;6.95;;
51836;SDS011;38941;53.254;6.600;2022-10-17T06:07:34;11.15;;;7.55;;
51836;SDS011;38941;53.254;6.600;2022-10-17T06:09:35;13.95;;;7.60;;
51836;SDS011;38941;53.254;6.600;2022-10-17T06:11:36;13.80;;;7.93;;
51836;SDS011;38941;53.254;6.600;2022-10-17T06:13:37;11.98;;;7.30;;
51836;SDS011;38941;53.254;6.600;2022-10-17T06:15:38;14.07;;;7.78;;
51836;SDS011;38941;53.254;6.600;2022-10-17T06:17:39;16.52;;;7.30;;
51836;SDS011;38941;53.254;6.600;2022-10-17T06:19:40;15.07;;;7.43;;
51836;SDS011;38941;53.254;6.600;2022-10-17T06:21:43;16.65;;;8.07;;
51836;SDS011;38941;53.254;6.600;2022-10-17T06:23:43;13.68;;;8.35;;
51836;SDS011;38941;53.254;6.600;2022-10-17T06:25:44;18.65;;;8.20;;
51836;SDS011;38941;53.254;6.600;2022-10-17T06:27:45;16.42;;;7.68;;
51836;SDS011;38941;53.254;6.600;2022-10-17T06:29:46;18.50;;;8.27;;
51836;SDS011;38941;53.254;6.600;2022-10-17T06:31:47;14.38;;;7.72;;
51836;SDS011;38941;53.254;6.600;2022-10-17T06:33:48;15.95;;;7.70;;
51836;SDS011;38941;53.254;6.600;2022-10-17T06:35:52;15.05;;;7.43;;
51836;SDS011;38941;53.254;6.600;2022-10-17T06:37:54;14.02;;;8.00;;
51836;SDS011;38941;53.254;6.600;2022-10-17T06:39:54;14.32;;;8.02;;
51836;SDS011;38941;53.254;6.600;2022-10-17T06:41:55;17.45;;;8.00;;
51836;SDS011;38941;53.254;6.600;2022-10-17T06:43:57;16.75;;;7.80;;
51836;SDS011;38941;53.254;6.600;2022-10-17T06:45:57;16.00;;;8.20;;
51836;SDS011;38941;53.254;6.600;2022-10-17T06:47:58;14.80;;;7.88;;
51836;SDS011;38941;53.254;6.600;2022-10-17T06:50:00;15.75;;;8.40;;
51836;SDS011;38941;53.254;6.600;2022-10-17T06:52:04;15.43;;;7.97;;
51836;SDS011;38941;53.254;6.600;2022-10-17T06:54:06;23.02;;;7.97;;
51836;SDS011;38941;53.254;6.600;2022-10-17T06:56:07;14.32;;;8.73;;
51836;SDS011;38941;53.254;6.600;2022-10-17T06:58:08;17.30;;;8.02;;
51836;SDS011;38941;53.254;6.600;2022-10-17T07:00:09;17.85;;;8.73;;
51836;SDS011;38941;53.254;6.600;2022-10-17T07:02:11;14.73;;;8.45;;
51836;SDS011;38941;53.254;6.600;2022-10-17T07:04:11;18.10;;;8.93;;
51836;SDS011;38941;53.254;6.600;2022-10-17T07:06:12;14.65;;;7.78;;
51836;SDS011;38941;53.254;6.600;2022-10-17T07:08:13;14.85;;;7.82;;
51836;SDS011;38941;53.254;6.600;2022-10-17T07:10:14;14.05;;;7.65;;
51836;SDS011;38941;53.254;6.600;2022-10-17T07:12:15;13.63;;;7.95;;
51836;SDS011;38941;53.254;6.600;2022-10-17T07:14:15;15.05;;;7.65;;
51836;SDS011;38941;53.254;6.600;2022-10-17T07:16:16;19.20;;;8.90;;
51836;SDS011;38941;53.254;6.600;2022-10-17T07:18:17;15.68;;;8.35;;
51836;SDS011;38941;53.254;6.600;2022-10-17T07:20:18;15.65;;;8.73;;
51836;SDS011;38941;53.254;6.600;2022-10-17T07:22:19;14.57;;;8.05;;
51836;SDS011;38941;53.254;6.600;2022-10-17T07:24:19;15.75;;;7.80;;
51836;SDS011;38941;53.254;6.600;2022-10-17T07:26:20;13.60;;;7.93;;
51836;SDS011;38941;53.254;6.600;2022-10-17T07:28:21;18.20;;;8.32;;
51836;SDS011;38941;53.254;6.600;2022-10-17T07:30:22;13.52;;;7.60;;
51836;SDS011;38941;53.254;6.600;2022-10-17T07:32:23;13.15;;;7.28;;
51836;SDS011;38941;53.254;6.600;2022-10-17T07:34:24;14.68;;;7.10;;
51836;SDS011;38941;53.254;6.600;2022-10-17T07:36:29;12.90;;;7.60;;
51836;SDS011;38941;53.254;6.600;2022-10-17T07:38:30;13.88;;;7.50;;
51836;SDS011;38941;53.254;6.600;2022-10-17T07:40:31;17.98;;;7.85;;
51836;SDS011;38941;53.254;6.600;2022-10-17T07:42:32;11.85;;;7.55;;
51836;SDS011;38941;53.254;6.600;2022-10-17T07:44:35;17.25;;;7.15;;
51836;SDS011;38941;53.254;6.600;2022-10-17T07:46:36;12.35;;;6.80;;
51836;SDS011;38941;53.254;6.600;2022-10-17T07:48:37;14.82;;;6.93;;
51836;SDS011;38941;53.254;6.600;2022-10-17T07:50:39;32.20;;;7.43;;
51836;SDS011;38941;53.254;6.600;2022-10-17T07:52:40;15.82;;;7.45;;
51836;SDS011;38941;53.254;6.600;2022-10-17T07:54:42;9.93;;;6.45;;
51836;SDS011;38941;53.254;6.600;2022-10-17T07:56:43;12.88;;;7.43;;
51836;SDS011;38941;53.254;6.600;2022-10-17T07:58:50;9.82;;;6.45;;
51836;SDS011;38941;53.254;6.600;2022-10-17T08:00:51;11.35;;;6.25;;
51836;SDS011;38941;53.254;6.600;2022-10-17T08:02:52;12.38;;;6.82;;
51836;SDS011;38941;53.254;6.600;2022-10-17T08:04:53;15.60;;;6.43;;
51836;SDS011;38941;53.254;6.600;2022-10-17T08:06:54;11.27;;;5.95;;
51836;SDS011;38941;53.254;6.600;2022-10-17T08:08:55;10.40;;;6.57;;
51836;SDS011;38941;53.254;6.600;2022-10-17T08:11:00;14.07;;;6.40;;
51836;SDS011;38941;53.254;6.600;2022-10-17T08:13:03;10.68;;;5.70;;
51836;SDS011;38941;53.254;6.600;2022-10-17T08:15:04;11.43;;;5.80;;
51836;SDS011;38941;53.254;6.600;2022-10-17T08:17:06;13.82;;;6.32;;
51836;SDS011;38941;53.254;6.600;2022-10-17T08:19:06;12.07;;;6.18;;
51836;SDS011;38941;53.254;6.600;2022-10-17T08:21:11;13.25;;;5.72;;
51836;SDS011;38941;53.254;6.600;2022-10-17T08:23:13;15.20;;;6.78;;
51836;SDS011;38941;53.254;6.600;2022-10-17T08:25:14;9.43;;;4.75;;
51836;SDS011;38941;53.254;6.600;2022-10-17T08:27:14;13.63;;;5.88;;
51836;SDS011;38941;53.254;6.600;2022-10-17T08:29:20;10.80;;;5.20;;
51836;SDS011;38941;53.254;6.600;2022-10-17T08:31:21;13.35;;;6.00;;
51836;SDS011;38941;53.254;6.600;2022-10-17T08:33:23;10.18;;;5.35;;
51836;SDS011;38941;53.254;6.600;2022-10-17T08:35:23;15.95;;;5.25;;
51836;SDS011;38941;53.254;6.600;2022-10-17T08:37:24;16.65;;;5.50;;
51836;SDS011;38941;53.254;6.600;2022-10-17T08:39:25;9.43;;;4.95;;
51836;SDS011;38941;53.254;6.600;2022-10-17T08:46:10;10.60;;;4.75;;
51836;SDS011;38941;53.254;6.600;2022-10-17T08:48:15;7.63;;;5.05;;
51836;SDS011;38941;53.254;6.600;2022-10-17T08:52:47;11.25;;;5.55;;
51836;SDS011;38941;53.254;6.600;2022-10-17T08:54:54;8.95;;;5.43;;
51836;SDS011;38941;53.254;6.600;2022-10-17T08:56:55;8.95;;;4.80;;
51836;SDS011;38941;53.254;6.600;2022-10-17T08:58:57;14.23;;;6.00;;
51836;SDS011;38941;53.254;6.600;2022-10-17T09:01:04;9.82;;;5.65;;
51836;SDS011;38941;53.254;6.600;2022-10-17T09:03:21;12.60;;;5.18;;
51836;SDS011;38941;53.254;6.600;2022-10-17T09:17:06;12.07;;;5.38;;
51836;SDS011;38941;53.254;6.600;2022-10-17T09:19:22;10.35;;;4.80;;
51836;SDS011;38941;53.254;6.600;2022-10-17T09:23:59;10.18;;;4.80;;
51836;SDS011;38941;53.254;6.600;2022-10-17T09:26:03;8.43;;;4.32;;
51836;SDS011;38941;53.254;6.600;2022-10-17T09:32:38;8.23;;;4.55;;
51836;SDS011;38941;53.254;6.600;2022-10-17T09:34:41;7.53;;;4.25;;
51836;SDS011;38941;53.254;6.600;2022-10-17T09:36:42;6.97;;;4.35;;
51836;SDS011;38941;53.254;6.600;2022-10-17T09:38:46;7.57;;;4.40;;
51836;SDS011;38941;53.254;6.600;2022-10-17T09:40:55;11.30;;;4.35;;
51836;SDS011;38941;53.254;6.600;2022-10-17T09:43:00;9.40;;;4.10;;
51836;SDS011;38941;53.254;6.600;2022-10-17T09:49:32;9.20;;;4.50;;
51836;SDS011;38941;53.254;6.600;2022-10-17T09:51:36;8.75;;;5.22;;
51836;SDS011;38941;53.254;6.600;2022-10-17T09:53:38;9.65;;;5.03;;
51836;SDS011;38941;53.254;6.600;2022-10-17T09:55:45;8.07;;;5.05;;
51836;SDS011;38941;53.254;6.600;2022-10-17T09:59:58;8.73;;;5.18;;
51836;SDS011;38941;53.254;6.600;2022-10-17T10:04:13;8.85;;;4.72;;
51836;SDS011;38941;53.254;6.600;2022-10-17T10:06:16;7.97;;;5.25;;
51836;SDS011;38941;53.254;6.600;2022-10-17T10:08:18;8.57;;;5.05;;
51836;SDS011;38941;53.254;6.600;2022-10-17T10:12:36;10.77;;;5.40;;
51836;SDS011;38941;53.254;6.600;2022-10-17T10:14:38;8.35;;;5.95;;
51836;SDS011;38941;53.254;6.600;2022-10-17T10:16:42;9.75;;;5.97;;
51836;SDS011;38941;53.254;6.600;2022-10-17T10:18:44;12.77;;;5.40;;
51836;SDS011;38941;53.254;6.600;2022-10-17T10:20:47;10.05;;;6.28;;
51836;SDS011;38941;53.254;6.600;2022-10-17T10:23:04;14.75;;;6.13;;
51836;SDS011;38941;53.254;6.600;2022-10-17T10:25:14;14.52;;;5.93;;
51836;SDS011;38941;53.254;6.600;2022-10-17T10:27:16;11.82;;;6.25;;
51836;SDS011;38941;53.254;6.600;2022-10-17T10:29:34;8.85;;;6.32;;
51836;SDS011;38941;53.254;6.600;2022-10-17T10:31:57;11.95;;;5.95;;
51836;SDS011;38941;53.254;6.600;2022-10-17T10:34:25;11.57;;;6.28;;
51836;SDS011;38941;53.254;6.600;2022-10-17T10:36:44;10.68;;;6.35;;
51836;SDS011;38941;53.254;6.600;2022-10-17T10:38:52;12.70;;;6.22;;
51836;SDS011;38941;53.254;6.600;2022-10-17T10:45:23;10.88;;;7.10;;
51836;SDS011;38941;53.254;6.600;2022-10-17T10:47:29;11.10;;;6.72;;
51836;SDS011;38941;53.254;6.600;2022-10-17T10:49:31;14.52;;;6.88;;
51836;SDS011;38941;53.254;6.600;2022-10-17T10:55:44;11.13;;;6.78;;
51836;SDS011;38941;53.254;6.600;2022-10-17T10:57:49;11.00;;;6.78;;
51836;SDS011;38941;53.254;6.600;2022-10-17T11:00:02;12.40;;;6.78;;
51836;SDS011;38941;53.254;6.600;2022-10-17T11:02:27;12.25;;;7.28;;
51836;SDS011;38941;53.254;6.600;2022-10-17T11:04:37;10.73;;;6.57;;
51836;SDS011;38941;53.254;6.600;2022-10-17T11:06:45;13.60;;;7.40;;
51836;SDS011;38941;53.254;6.600;2022-10-17T11:08:50;11.48;;;7.10;;
51836;SDS011;38941;53.254;6.600;2022-10-17T11:13:18;11.50;;;7.28;;
51836;SDS011;38941;53.254;6.600;2022-10-17T11:15:34;15.65;;;8.05;;
51836;SDS011;38941;53.254;6.600;2022-10-17T11:17:59;13.95;;;7.68;;
51836;SDS011;38941;53.254;6.600;2022-10-17T11:22:08;13.18;;;7.13;;
51836;SDS011;38941;53.254;6.600;2022-10-17T11:24:26;12.80;;;7.38;;
51836;SDS011;38941;53.254;6.600;2022-10-17T11:26:32;10.57;;;6.25;;
51836;SDS011;38941;53.254;6.600;2022-10-17T11:28:40;10.82;;;6.90;;
51836;SDS011;38941;53.254;6.600;2022-10-17T11:30:43;14.55;;;6.45;;
51836;SDS011;38941;53.254;6.600;2022-10-17T11:32:51;10.52;;;5.70;;
51836;SDS011;38941;53.254;6.600;2022-10-17T11:34:58;11.48;;;6.60;;
51836;SDS011;38941;53.254;6.600;2022-10-17T11:37:24;10.50;;;5.90;;
51836;SDS011;38941;53.254;6.600;2022-10-17T11:41:52;10.30;;;6.03;;
51836;SDS011;38941;53.254;6.600;2022-10-17T11:46:23;12.07;;;6.28;;
51836;SDS011;38941;53.254;6.600;2022-10-17T11:48:38;11.70;;;5.55;;
51836;SDS011;38941;53.254;6.600;2022-10-17T11:50:59;8.88;;;5.38;;
51836;SDS011;38941;53.254;6.600;2022-10-17T11:53:10;10.38;;;5.60;;
51836;SDS011;38941;53.254;6.600;2022-10-17T11:55:22;10.20;;;5.80;;
51836;SDS011;38941;53.254;6.600;2022-10-17T11:59:47;10.07;;;5.57;;
51836;SDS011;38941;53.254;6.600;2022-10-17T12:02:16;7.85;;;5.00;;
51836;SDS011;38941;53.254;6.600;2022-10-17T12:04:44;10.00;;;4.55;;
51836;SDS011;38941;53.254;6.600;2022-10-17T12:12:00;8.30;;;3.72;;
51836;SDS011;38941;53.254;6.600;2022-10-17T12:14:09;9.52;;;3.95;;
51836;SDS011;38941;53.254;6.600;2022-10-17T12:16:42;7.30;;;3.63;;
51836;SDS011;38941;53.254;6.600;2022-10-17T12:18:47;9.73;;;3.90;;
51836;SDS011;38941;53.254;6.600;2022-10-17T12:21:12;5.30;;;3.15;;
51836;SDS011;38941;53.254;6.600;2022-10-17T12:25:18;8.68;;;3.53;;
51836;SDS011;38941;53.254;6.600;2022-10-17T12:27:43;6.15;;;3.15;;
51836;SDS011;38941;53.254;6.600;2022-10-17T12:29:46;6.97;;;3.97;;
51836;SDS011;38941;53.254;6.600;2022-10-17T12:31:47;5.10;;;2.97;;
51836;SDS011;38941;53.254;6.600;2022-10-17T12:33:49;6.43;;;3.65;;
51836;SDS011;38941;53.254;6.600;2022-10-17T12:36:36;5.80;;;3.40;;
51836;SDS011;38941;53.254;6.600;2022-10-17T12:42:44;6.13;;;3.50;;
51836;SDS011;38941;53.254;6.600;2022-10-17T12:44:47;6.97;;;3.67;;
51836;SDS011;38941;53.254;6.600;2022-10-17T12:46:51;6.00;;;3.83;;
51836;SDS011;38941;53.254;6.600;2022-10-17T12:48:59;5.78;;;3.92;;
51836;SDS011;38941;53.254;6.600;2022-10-17T12:51:03;7.15;;;4.20;;
51836;SDS011;38941;53.254;6.600;2022-10-17T12:53:10;5.85;;;3.65;;
51836;SDS011;38941;53.254;6.600;2022-10-17T12:55:16;6.97;;;3.28;;
51836;SDS011;38941;53.254;6.600;2022-10-17T12:59:56;6.25;;;3.83;;
51836;SDS011;38941;53.254;6.600;2022-10-17T13:01:58;6.22;;;3.90;;
51836;SDS011;38941;53.254;6.600;2022-10-17T13:04:02;8.07;;;4.07;;
51836;SDS011;38941;53.254;6.600;2022-10-17T13:06:05;5.75;;;3.58;;
51836;SDS011;38941;53.254;6.600;2022-10-17T13:08:07;6.78;;;3.58;;
51836;SDS011;38941;53.254;6.600;2022-10-17T13:10:21;7.50;;;3.50;;
51836;SDS011;38941;53.254;6.600;2022-10-17T13:12:24;6.10;;;3.90;;
51836;SDS011;38941;53.254;6.600;2022-10-17T13:14:27;5.95;;;3.17;;
51836;SDS011;38941;53.254;6.600;2022-10-17T13:16:38;5.30;;;3.30;;
51836;SDS011;38941;53.254;6.600;2022-10-17T13:18:51;5.45;;;3.10;;
51836;SDS011;38941;53.254;6.600;2022-10-17T13:20:53;5.80;;;3.13;;
51836;SDS011;38941;53.254;6.600;2022-10-17T13:22:54;5.72;;;2.90;;
51836;SDS011;38941;53.254;6.600;2022-10-17T13:25:12;4.45;;;2.40;;
51836;SDS011;38941;53.254;6.600;2022-10-17T13:29:24;7.45;;;3.50;;
51836;SDS011;38941;53.254;6.600;2022-10-17T13:31:28;4.55;;;2.60;;
51836;SDS011;38941;53.254;6.600;2022-10-17T13:33:35;5.35;;;2.85;;
51836;SDS011;38941;53.254;6.600;2022-10-17T13:35:38;4.47;;;1.92;;
51836;SDS011;38941;53.254;6.600;2022-10-17T13:37:40;7.93;;;2.10;;
51836;SDS011;38941;53.254;6.600;2022-10-17T13:39:43;6.15;;;2.67;;
51836;SDS011;38941;53.254;6.600;2022-10-17T13:41:48;3.45;;;1.83;;
51836;SDS011;38941;53.254;6.600;2022-10-17T13:43:49;7.72;;;2.60;;
51836;SDS011;38941;53.254;6.600;2022-10-17T13:45:52;7.47;;;1.95;;
51836;SDS011;38941;53.254;6.600;2022-10-17T13:47:55;8.82;;;2.13;;
51836;SDS011;38941;53.254;6.600;2022-10-17T13:50:02;6.70;;;2.13;;
51836;SDS011;38941;53.254;6.600;2022-10-17T13:52:05;5.65;;;2.67;;
51836;SDS011;38941;53.254;6.600;2022-10-17T13:54:18;6.47;;;2.80;;
51836;SDS011;38941;53.254;6.600;2022-10-17T13:56:53;6.25;;;2.83;;
51836;SDS011;38941;53.254;6.600;2022-10-17T13:59:05;5.45;;;2.78;;
51836;SDS011;38941;53.254;6.600;2022-10-17T14:01:18;4.30;;;2.67;;
51836;SDS011;38941;53.254;6.600;2022-10-17T14:03:20;7.57;;;2.95;;
51836;SDS011;38941;53.254;6.600;2022-10-17T14:05:22;7.07;;;2.53;;
51836;SDS011;38941;53.254;6.600;2022-10-17T14:07:25;2.88;;;2.00;;
51836;SDS011;38941;53.254;6.600;2022-10-17T14:09:33;5.13;;;2.25;;
51836;SDS011;38941;53.254;6.600;2022-10-17T14:11:35;4.03;;;1.83;;
51836;SDS011;38941;53.254;6.600;2022-10-17T14:13:38;7.65;;;1.88;;